Los Palacios y Villafranca, Spain
Current Conditions -  °F | °C
As of 5:00 PM on Sunday 25 Jan 2015 (Local Time) from LEMO Reporting Station
Clear Clear  
Wind Chill: 63°   Ceiling: Unl
Heat Index: 63°   Visibility: 6mi
Dew Point: 39°   Wind: 12mph
Humidity: 42%   Direction: 60°ENE
Pressure: 30.24"   Gusts: NA
Location:  37.16°N, 5.92°W
Report Text: LEMO 251600Z 06010KT 020V100 CAVOK 17/04 Q1024 NOSIG
Loading
Personal Weather Stations






























Interactive Weather Map New forecast layout! Learn more

10-Day Weather Forecast

Advertisements
Track Severe Weather on mobile